Time;durP1;ratioP1;P1;durP2;ratioP2;P2;SDS_P1;SDS_P2;PMS_P1;PMS_P2;Temp;Humidity;BMP_temperature;BMP_pressure;BME280_temperature;BME280_humidity;BME280_pressure;Samples;Min_cycle;Max_cycle;Signal;HPM_P1;HPM_P2
2023/03/01 00:00:24;;;;;;;15.40;7.82;;;2.50;99.90;;;;;;5054373;28;20029;-67
2023/03/01 00:02:49;;;;;;;14.32;7.47;;;2.50;99.90;;;;;;5058957;28;20025;-68
2023/03/01 00:05:15;;;;;;;14.13;7.07;;;2.40;99.90;;;;;;5061969;28;20052;-67
2023/03/01 00:07:40;;;;;;;15.20;6.88;;;2.40;99.90;;;;;;5057125;28;20032;-67
2023/03/01 00:10:06;;;;;;;11.80;6.88;;;2.30;99.90;;;;;;5058070;28;20021;-67
2023/03/01 00:12:32;;;;;;;14.63;6.85;;;2.40;99.90;;;;;;5056263;28;20028;-67
2023/03/01 00:14:57;;;;;;;16.42;6.40;;;2.40;99.90;;;;;;5056658;28;20056;-67
2023/03/01 00:17:23;;;;;;;21.67;7.80;;;2.40;99.90;;;;;;5071031;22;20036;-70
2023/03/01 00:19:48;;;;;;;19.92;7.20;;;2.40;99.90;;;;;;5052382;28;20017;-70
2023/03/01 00:22:14;;;;;;;17.08;7.10;;;2.40;99.90;;;;;;5053303;28;20079;-70
2023/03/01 00:24:39;;;;;;;12.32;6.13;;;2.40;99.90;;;;;;5053736;28;20082;-71
2023/03/01 00:27:05;;;;;;;9.82;6.35;;;2.40;99.90;;;;;;5052354;28;20021;-71
2023/03/01 00:29:30;;;;;;;17.92;7.35;;;2.40;99.90;;;;;;5035721;28;20033;-71
2023/03/01 00:31:56;;;;;;;14.63;7.97;;;2.40;99.90;;;;;;5035778;28;20476;-70
2023/03/01 00:34:21;;;;;;;12.82;6.85;;;2.30;99.90;;;;;;5035704;28;20479;-70
2023/03/01 00:36:47;;;;;;;15.88;6.60;;;2.30;99.90;;;;;;5035672;28;20048;-70
2023/03/01 00:39:14;;;;;;;15.13;7.03;;;2.30;99.90;;;;;;5036017;28;20056;-70
2023/03/01 00:41:40;;;;;;;21.67;7.88;;;2.30;99.90;;;;;;5035789;28;20025;-70
2023/03/01 00:44:06;;;;;;;15.15;6.68;;;2.30;99.90;;;;;;5035939;28;20021;-70
2023/03/01 00:46:31;;;;;;;12.00;6.22;;;2.30;99.90;;;;;;5053297;28;20032;-70
2023/03/01 00:48:57;;;;;;;14.75;7.05;;;2.30;99.90;;;;;;5035899;28;20029;-70
2023/03/01 00:51:26;;;;;;;13.18;8.07;;;2.20;99.90;;;;;;5035832;28;20064;-70
2023/03/01 00:53:53;;;;;;;11.90;7.18;;;2.30;99.90;;;;;;5035509;28;20021;-70
2023/03/01 00:56:19;;;;;;;13.85;6.53;;;2.30;99.90;;;;;;5053554;28;20025;-70
2023/03/01 00:58:45;;;;;;;12.77;6.80;;;2.30;99.90;;;;;;5053172;28;20036;-71
2023/03/01 01:01:17;;;;;;;16.92;7.53;;;2.30;99.90;;;;;;5035367;28;20116;-71
2023/03/01 01:03:47;;;;;;;16.02;6.82;;;2.30;99.90;;;;;;5035918;28;20240;-71
2023/03/01 01:06:21;;;;;;;14.88;7.20;;;2.30;99.90;;;;;;5036326;28;20031;-71
2023/03/01 01:08:48;;;;;;;16.55;7.20;;;2.30;99.90;;;;;;5035385;28;20456;-70
2023/03/01 01:11:14;;;;;;;17.27;7.82;;;2.30;99.90;;;;;;5035187;28;20115;-70
2023/03/01 01:13:40;;;;;;;15.65;7.55;;;2.30;99.90;;;;;;5036130;28;20055;-70
2023/03/01 01:16:06;;;;;;;18.17;7.18;;;2.30;99.90;;;;;;5053162;28;20028;-70
2023/03/01 01:18:32;;;;;;;14.48;7.53;;;2.30;99.90;;;;;;5053680;28;20032;-70
2023/03/01 01:20:58;;;;;;;15.07;7.13;;;2.30;99.90;;;;;;5037296;28;20078;-70
2023/03/01 01:23:23;;;;;;;13.15;7.05;;;2.20;99.90;;;;;;5039214;28;20029;-71
2023/03/01 01:25:48;;;;;;;14.73;7.25;;;2.20;99.90;;;;;;5039525;28;20036;-71
2023/03/01 01:28:14;;;;;;;15.73;6.78;;;2.30;99.90;;;;;;5056852;28;20064;-70
2023/03/01 01:30:39;;;;;;;16.85;7.55;;;2.10;99.90;;;;;;5040217;28;20070;-70
2023/03/01 01:33:05;;;;;;;13.23;7.10;;;2.00;99.90;;;;;;5039112;28;20013;-70
2023/03/01 01:35:31;;;;;;;14.88;7.30;;;2.10;99.90;;;;;;5055570;28;20458;-70
2023/03/01 01:37:56;;;;;;;12.68;6.72;;;2.10;99.90;;;;;;5039229;28;20444;-70
2023/03/01 01:40:21;;;;;;;18.55;7.75;;;2.10;99.90;;;;;;5039425;28;20025;-70
2023/03/01 01:42:47;;;;;;;14.30;8.07;;;2.10;99.90;;;;;;5038938;28;20025;-70
2023/03/01 01:45:28;;;;;;;12.07;6.97;;;2.00;99.90;;;;;;5056987;28;20029;-70
2023/03/01 01:47:58;;;;;;;17.33;7.13;;;2.10;99.90;;;;;;5056573;28;20029;-70
2023/03/01 01:50:24;;;;;;;11.77;6.70;;;2.00;99.90;;;;;;5039549;28;20039;-70
2023/03/01 01:52:52;;;;;;;12.85;6.63;;;2.00;99.90;;;;;;5056669;28;20104;-71
2023/03/01 01:55:22;;;;;;;15.75;7.35;;;2.00;99.90;;;;;;5056561;28;20078;-71
2023/03/01 01:58:01;;;;;;;14.10;7.75;;;2.00;99.90;;;;;;5039365;28;20079;-70
2023/03/01 02:00:30;;;;;;;14.60;7.57;;;1.90;99.90;;;;;;5038931;28;20051;-70
2023/03/01 02:03:00;;;;;;;17.13;7.50;;;2.00;99.90;;;;;;5056336;28;20058;-70
2023/03/01 02:05:32;;;;;;;17.63;7.95;;;1.90;99.90;;;;;;5038509;28;20036;-70
2023/03/01 02:07:59;;;;;;;17.13;8.40;;;1.90;99.90;;;;;;5054916;28;20021;-71
2023/03/01 02:10:24;;;;;;;15.55;6.70;;;1.90;99.90;;;;;;5039217;28;20075;-70
2023/03/01 02:12:51;;;;;;;18.05;7.57;;;1.90;99.90;;;;;;5038328;28;20025;-70
2023/03/01 02:15:17;;;;;;;15.07;8.25;;;1.90;99.90;;;;;;5038482;28;20021;-70
2023/03/01 02:17:43;;;;;;;15.55;7.57;;;1.80;99.90;;;;;;5038315;28;20029;-70
2023/03/01 02:20:39;;;;;;;21.73;8.43;;;1.80;99.90;;;;;;5038182;28;20055;-70
2023/03/01 02:23:05;;;;;;;16.70;7.72;;;1.60;99.90;;;;;;4998556;28;20025;-70
2023/03/01 02:25:58;;;;;;;16.27;7.65;;;1.70;99.90;;;;;;5038112;28;20025;-70
2023/03/01 02:28:29;;;;;;;16.08;8.07;;;1.80;99.90;;;;;;5038281;28;20056;-70
2023/03/01 02:33:40;;;;;;;18.65;8.35;;;1.90;99.90;;;;;;5055683;28;20036;-70
2023/03/01 02:36:28;;;;;;;19.25;8.05;;;1.80;99.90;;;;;;5038809;28;20051;-70
2023/03/01 02:38:58;;;;;;;18.33;8.45;;;1.80;99.90;;;;;;5037722;28;20115;-70
2023/03/01 02:41:26;;;;;;;19.02;9.07;;;1.90;99.90;;;;;;5037764;28;20115;-70
2023/03/01 02:43:51;;;;;;;18.40;7.53;;;1.80;99.90;;;;;;5037851;28;20078;-70
2023/03/01 02:46:23;;;;;;;15.65;7.65;;;1.80;99.90;;;;;;5037708;28;20025;-70
2023/03/01 02:48:54;;;;;;;15.25;8.02;;;1.50;99.90;;;;;;5038381;28;20025;-70
2023/03/01 02:51:23;;;;;;;15.05;7.90;;;1.40;99.90;;;;;;5037984;28;20018;-70
2023/03/01 02:53:55;;;;;;;21.90;9.05;;;1.50;99.90;;;;;;5055393;28;20025;-70
2023/03/01 02:56:20;;;;;;;;;;;1.50;99.90;;;;;;5055781;28;20032;-70
2023/03/01 02:58:50;;;;;;;18.23;8.43;;;1.50;99.90;;;;;;5054374;28;19908;-70
2023/03/01 03:01:16;;;;;;;19.05;8.05;;;1.60;99.90;;;;;;5037495;28;20119;-70
2023/03/01 03:03:42;;;;;;;21.40;8.48;;;1.40;99.90;;;;;;5037310;28;20158;-70
2023/03/01 03:06:09;;;;;;;18.20;7.80;;;1.50;99.90;;;;;;5037310;28;20029;-70
2023/03/01 03:08:34;;;;;;;15.32;7.75;;;1.60;99.90;;;;;;5037158;28;20036;-70
2023/03/01 03:11:00;;;;;;;17.70;8.15;;;1.50;99.90;;;;;;5037285;28;20017;-70
2023/03/01 03:13:28;;;;;;;25.30;9.05;;;1.70;99.90;;;;;;5054974;28;20069;-70
2023/03/01 03:15:55;;;;;;;16.85;8.27;;;1.70;99.90;;;;;;5037644;28;20029;-70
2023/03/01 03:18:21;;;;;;;18.20;8.02;;;1.80;99.90;;;;;;5037367;28;20048;-70
2023/03/01 03:20:47;;;;;;;16.70;7.90;;;1.80;99.90;;;;;;5037693;28;20028;-71
2023/03/01 03:23:13;;;;;;;18.70;7.47;;;1.80;99.90;;;;;;5054826;28;20032;-71
2023/03/01 03:25:39;;;;;;;16.15;7.95;;;1.70;99.90;;;;;;5037214;28;20048;-70
2023/03/01 03:28:09;;;;;;;16.67;7.95;;;1.70;99.90;;;;;;5036763;28;20075;-70
2023/03/01 03:30:38;;;;;;;18.85;8.35;;;1.60;99.90;;;;;;5037175;28;20025;-70
2023/03/01 03:33:04;;;;;;;17.55;8.75;;;1.50;99.90;;;;;;5036810;28;20128;-70
2023/03/01 03:35:33;;;;;;;16.48;8.77;;;1.50;99.90;;;;;;5036963;28;20108;-71
2023/03/01 03:38:03;;;;;;;19.02;8.73;;;1.30;99.90;;;;;;5037084;28;20025;-70
2023/03/01 03:40:34;;;;;;;18.08;7.65;;;1.20;99.90;;;;;;5036691;28;20063;-70
2023/03/01 03:43:01;;;;;;;23.15;8.90;;;1.20;99.90;;;;;;5036745;28;20028;-70
2023/03/01 03:45:27;;;;;;;20.08;7.75;;;1.10;99.90;;;;;;5035910;28;20036;-70
2023/03/01 03:47:53;;;;;;;19.08;8.52;;;1.20;99.90;;;;;;5036824;28;20025;-70
2023/03/01 03:50:19;;;;;;;18.23;8.30;;;1.30;99.90;;;;;;5037087;28;20021;-70
2023/03/01 03:52:45;;;;;;;18.35;7.88;;;1.40;99.90;;;;;;5054284;28;20025;-70
2023/03/01 03:55:12;;;;;;;18.17;8.30;;;1.40;99.90;;;;;;5036337;28;20079;-70
2023/03/01 03:57:39;;;;;;;15.52;7.88;;;1.50;99.90;;;;;;5036281;28;20024;-70
2023/03/01 04:00:13;;;;;;;18.00;8.88;;;1.40;99.90;;;;;;5054220;28;20020;-70
2023/03/01 04:02:43;;;;;;;21.23;8.75;;;1.30;99.90;;;;;;5037077;28;20110;-70
2023/03/01 04:05:12;;;;;;;24.88;8.52;;;1.40;99.90;;;;;;5036226;28;20047;-70
2023/03/01 04:07:38;;;;;;;16.33;7.88;;;1.40;99.90;;;;;;5053799;28;20025;-70
2023/03/01 04:10:06;;;;;;;16.25;8.23;;;1.30;99.90;;;;;;5054070;28;20091;-71
2023/03/01 04:12:33;;;;;;;24.83;9.18;;;1.30;99.90;;;;;;5053033;28;20051;-71
2023/03/01 04:14:59;;;;;;;23.00;9.85;;;1.20;99.90;;;;;;5035960;28;20051;-70
2023/03/01 04:17:25;;;;;;;21.80;8.82;;;1.30;99.90;;;;;;5053849;28;20037;-70
2023/03/01 04:19:51;;;;;;;16.83;8.90;;;1.30;99.90;;;;;;5035964;28;20079;-71
2023/03/01 04:22:18;;;;;;;18.20;8.50;;;1.40;99.90;;;;;;5053800;28;20020;-70
2023/03/01 04:24:44;;;;;;;19.65;8.65;;;1.50;99.90;;;;;;5053855;28;20046;-70
2023/03/01 04:27:10;;;;;;;19.67;8.20;;;1.50;99.90;;;;;;5053645;28;20117;-70
2023/03/01 04:29:35;;;;;;;19.30;8.40;;;1.50;99.90;;;;;;5053586;28;20036;-69
2023/03/01 04:32:02;;;;;;;21.63;8.70;;;1.50;99.90;;;;;;5052747;28;20029;-69
2023/03/01 04:34:28;;;;;;;20.83;8.63;;;1.50;99.90;;;;;;5035732;28;20534;-69
2023/03/01 04:36:54;;;;;;;19.50;8.13;;;1.50;99.90;;;;;;5035474;28;20079;-69
2023/03/01 04:39:20;;;;;;;16.85;8.50;;;1.50;99.90;;;;;;5035896;28;20060;-69
2023/03/01 04:41:45;;;;;;;20.63;8.85;;;1.50;99.90;;;;;;5035976;28;20028;-69
2023/03/01 04:44:11;;;;;;;18.85;8.50;;;1.50;99.90;;;;;;5035664;28;20108;-67
2023/03/01 04:46:36;;;;;;;17.05;7.80;;;1.50;99.90;;;;;;5053341;28;20060;-67
2023/03/01 04:49:03;;;;;;;18.85;8.85;;;1.50;99.90;;;;;;5036349;28;20032;-67
2023/03/01 04:51:28;;;;;;;20.70;8.63;;;1.40;99.90;;;;;;5035911;28;20028;-68
2023/03/01 04:53:54;;;;;;;20.20;8.75;;;1.40;99.90;;;;;;5035797;28;20092;-68
2023/03/01 04:56:22;;;;;;;18.33;7.75;;;1.30;99.90;;;;;;5035084;28;20057;-68
2023/03/01 04:58:48;;;;;;;17.75;8.35;;;1.20;99.90;;;;;;5036126;28;20100;-68
2023/03/01 05:01:17;;;;;;;18.70;7.40;;;1.20;99.90;;;;;;5035294;28;20032;-69
2023/03/01 05:03:45;;;;;;;19.13;8.38;;;1.20;99.90;;;;;;5053184;28;20017;-69
2023/03/01 05:06:11;;;;;;;20.77;7.78;;;1.30;99.90;;;;;;5035428;28;20025;-69
2023/03/01 05:08:38;;;;;;;22.15;9.10;;;1.40;99.90;;;;;;5035982;28;20025;-69
2023/03/01 05:11:05;;;;;;;14.73;7.95;;;1.40;99.90;;;;;;5053461;28;20029;-70
2023/03/01 05:13:31;;;;;;;17.70;8.85;;;1.40;99.90;;;;;;5053064;28;20019;-70
2023/03/01 05:15:59;;;;;;;21.45;9.30;;;1.30;99.90;;;;;;5036200;28;20013;-71
2023/03/01 05:18:26;;;;;;;23.63;8.77;;;1.20;99.90;;;;;;5052823;28;20037;-70
2023/03/01 05:20:58;;;;;;;19.60;8.68;;;1.20;99.90;;;;;;5035249;28;20075;-69
2023/03/01 05:23:26;;;;;;;16.35;8.15;;;1.20;99.90;;;;;;5035970;28;20031;-68
2023/03/01 05:25:52;;;;;;;20.00;8.77;;;1.30;99.90;;;;;;5053245;28;20385;-68
2023/03/01 05:28:19;;;;;;;20.40;8.80;;;1.20;99.90;;;;;;5034883;28;20195;-68
2023/03/01 05:30:45;;;;;;;18.98;8.75;;;1.30;99.90;;;;;;5035955;28;20078;-68
2023/03/01 05:33:14;;;;;;;24.63;8.73;;;1.20;99.90;;;;;;5052913;28;20029;-68
2023/03/01 05:35:43;;;;;;;20.17;9.93;;;1.20;99.90;;;;;;5052908;28;20017;-68
2023/03/01 05:38:13;;;;;;;19.83;8.35;;;1.10;99.90;;;;;;5052687;28;20059;-68
2023/03/01 05:40:43;;;;;;;20.95;8.50;;;1.20;99.90;;;;;;5034963;28;20025;-69
2023/03/01 05:43:10;;;;;;;25.40;9.30;;;1.10;99.90;;;;;;5034946;28;20028;-68
2023/03/01 05:45:37;;;;;;;20.85;8.05;;;1.00;99.90;;;;;;5034854;28;20511;-69
2023/03/01 05:48:04;;;;;;;19.95;8.75;;;1.00;99.90;;;;;;5034899;28;20075;-68
2023/03/01 05:50:33;;;;;;;20.20;8.95;;;0.90;99.90;;;;;;5052965;28;20017;-68
2023/03/01 05:53:00;;;;;;;24.35;8.57;;;0.90;99.90;;;;;;5052717;28;20025;-68
2023/03/01 05:55:27;;;;;;;19.23;8.55;;;1.00;99.90;;;;;;5053067;28;20056;-70
2023/03/01 05:57:52;;;;;;;20.42;9.02;;;1.00;99.90;;;;;;5034806;28;20021;-70
2023/03/01 06:00:21;;;;;;;18.73;8.15;;;1.00;99.90;;;;;;5034742;28;20035;-70
2023/03/01 06:02:48;;;;;;;18.60;9.13;;;1.00;99.90;;;;;;5034778;28;20503;-70
2023/03/01 06:05:14;;;;;;;25.95;9.63;;;1.00;99.90;;;;;;5035026;28;20027;-70
2023/03/01 06:07:40;;;;;;;27.08;10.45;;;1.00;99.90;;;;;;5035294;28;20059;-70
2023/03/01 06:10:07;;;;;;;22.60;9.75;;;1.10;99.90;;;;;;5038438;28;20056;-70
2023/03/01 06:12:34;;;;;;;26.90;11.40;;;1.10;99.90;;;;;;5038295;28;20025;-70
2023/03/01 06:15:01;;;;;;;26.77;9.75;;;1.10;99.90;;;;;;5038332;28;20468;-70
2023/03/01 06:17:29;;;;;;;21.02;9.10;;;1.00;99.90;;;;;;5073111;23;20047;-69
2023/03/01 06:19:54;;;;;;;25.73;8.93;;;1.10;99.90;;;;;;5095026;28;20020;-69
2023/03/01 06:22:20;;;;;;;20.45;8.73;;;1.10;99.90;;;;;;5096360;28;20035;-69
2023/03/01 06:24:45;;;;;;;22.70;8.90;;;1.10;99.90;;;;;;5095432;28;20024;-69
2023/03/01 06:27:11;;;;;;;20.33;9.50;;;1.00;99.90;;;;;;5095186;28;20028;-69
2023/03/01 06:29:36;;;;;;;17.23;8.68;;;1.00;99.90;;;;;;5095517;28;20368;-69
2023/03/01 06:32:03;;;;;;;16.20;8.23;;;1.00;99.90;;;;;;5095180;28;20027;-69
2023/03/01 06:34:28;;;;;;;18.30;7.95;;;1.00;99.90;;;;;;5094903;28;20517;-69
2023/03/01 06:36:54;;;;;;;17.00;7.95;;;1.20;99.90;;;;;;5096149;28;20016;-69
2023/03/01 06:39:19;;;;;;;18.27;8.68;;;1.30;99.90;;;;;;5096576;28;20034;-69
2023/03/01 06:41:45;;;;;;;20.58;8.30;;;1.10;99.90;;;;;;5095367;28;20118;-69
2023/03/01 06:44:10;;;;;;;17.80;8.43;;;1.10;99.90;;;;;;5095505;28;20024;-69
2023/03/01 06:46:36;;;;;;;19.17;7.35;;;1.10;99.90;;;;;;5095177;28;20024;-70
2023/03/01 06:49:04;;;;;;;21.95;8.68;;;1.00;99.90;;;;;;5095892;28;20024;-70
2023/03/01 06:51:29;;;;;;;19.17;9.23;;;1.20;99.90;;;;;;5095954;28;20020;-69
2023/03/01 06:53:55;;;;;;;21.75;8.38;;;1.10;99.90;;;;;;5094966;28;20172;-69
2023/03/01 06:56:21;;;;;;;20.23;9.07;;;1.20;99.90;;;;;;5094416;28;20027;-70
2023/03/01 06:58:46;;;;;;;17.63;8.93;;;1.30;99.90;;;;;;5094385;28;20196;-69
2023/03/01 07:01:12;;;;;;;25.40;9.23;;;1.30;99.90;;;;;;5095755;28;20540;-69
2023/03/01 07:03:37;;;;;;;19.77;8.88;;;1.40;99.90;;;;;;5094557;28;20516;-69
2023/03/01 07:06:03;;;;;;;20.70;9.15;;;1.40;99.90;;;;;;5094802;28;20016;-69
2023/03/01 07:08:28;;;;;;;16.55;8.57;;;1.50;99.90;;;;;;5095548;28;20071;-69
2023/03/01 07:10:58;;;;;;;23.00;8.18;;;1.50;99.90;;;;;;5094229;28;20054;-69
2023/03/01 07:13:24;;;;;;;20.85;8.57;;;1.50;99.90;;;;;;5095374;28;20016;-70
2023/03/01 07:15:49;;;;;;;21.30;8.45;;;1.50;99.90;;;;;;5094114;28;20020;-69
2023/03/01 07:18:15;;;;;;;23.75;8.93;;;1.60;99.90;;;;;;5095304;28;20089;-69
2023/03/01 07:20:40;;;;;;;20.48;8.60;;;1.60;99.90;;;;;;5095354;28;20036;-69
2023/03/01 07:23:06;;;;;;;22.58;9.10;;;1.70;99.90;;;;;;5094048;28;20028;-70
2023/03/01 07:25:32;;;;;;;18.27;8.85;;;1.60;99.90;;;;;;5093895;28;20089;-69
2023/03/01 07:27:57;;;;;;;21.40;8.63;;;1.70;99.90;;;;;;5094457;28;20036;-69
2023/03/01 07:30:25;;;;;;;20.33;9.32;;;1.70;99.90;;;;;;5093765;28;20027;-69
2023/03/01 07:32:51;;;;;;;19.05;9.68;;;1.60;99.90;;;;;;5095044;28;20016;-69
2023/03/01 07:35:17;;;;;;;23.35;9.57;;;1.70;99.90;;;;;;5095002;28;20149;-69
2023/03/01 07:37:43;;;;;;;20.75;9.32;;;1.80;99.90;;;;;;5093595;28;20066;-69
2023/03/01 07:40:10;;;;;;;25.08;9.38;;;1.90;99.90;;;;;;5093621;28;20020;-70
2023/03/01 07:42:35;;;;;;;17.88;8.77;;;1.90;99.90;;;;;;5093499;28;20020;-70
2023/03/01 07:45:02;;;;;;;19.33;10.07;;;1.90;99.90;;;;;;5093885;28;20039;-69
2023/03/01 07:47:27;;;;;;;19.35;8.82;;;2.00;99.90;;;;;;5094689;28;20102;-70
2023/03/01 07:49:53;;;;;;;20.45;9.27;;;2.00;99.90;;;;;;5094409;28;20103;-69
2023/03/01 07:52:18;;;;;;;22.88;9.27;;;2.10;99.90;;;;;;5093414;28;20022;-69
2023/03/01 07:54:44;;;;;;;22.00;9.23;;;2.10;99.90;;;;;;5094596;28;20085;-69
2023/03/01 07:57:10;;;;;;;25.30;8.77;;;2.20;99.90;;;;;;5093153;28;20042;-69
2023/03/01 07:59:36;;;;;;;20.05;9.95;;;2.20;99.90;;;;;;5093183;28;20117;-69
2023/03/01 08:02:01;;;;;;;18.70;8.40;;;2.30;99.90;;;;;;5093233;28;20031;-69
2023/03/01 08:04:27;;;;;;;21.90;9.32;;;2.30;99.90;;;;;;5094388;28;20043;-69
2023/03/01 08:06:53;;;;;;;19.17;9.20;;;2.40;99.90;;;;;;5094230;28;20073;-69
2023/03/01 08:09:19;;;;;;;21.13;9.00;;;2.50;99.90;;;;;;5093308;28;20048;-70
2023/03/01 08:11:44;;;;;;;20.95;8.73;;;2.40;99.90;;;;;;5093149;28;20055;-70
2023/03/01 08:14:10;;;;;;;18.10;8.73;;;2.50;99.90;;;;;;5092965;28;20066;-70
2023/03/01 08:16:36;;;;;;;18.98;8.98;;;2.60;99.90;;;;;;5093908;28;20058;-70
2023/03/01 08:19:07;;;;;;;20.05;8.95;;;2.70;99.90;;;;;;5094016;28;20177;-70
2023/03/01 08:21:34;;;;;;;15.63;8.00;;;2.70;99.90;;;;;;5094320;28;20031;-70
2023/03/01 08:24:00;;;;;;;19.05;9.68;;;2.70;99.90;;;;;;5093123;28;20028;-70
2023/03/01 08:26:26;;;;;;;20.65;8.07;;;2.80;99.90;;;;;;5092718;28;20101;-70
2023/03/01 08:28:51;;;;;;;20.67;9.57;;;2.90;99.90;;;;;;5093970;28;20078;-69
2023/03/01 08:31:27;;;;;;;18.25;8.63;;;2.90;99.90;;;;;;5093794;28;20546;-69
2023/03/01 08:33:56;;;;;;;18.67;8.43;;;3.00;99.90;;;;;;5094147;28;20023;-69
2023/03/01 08:36:24;;;;;;;17.77;8.43;;;3.20;99.90;;;;;;5092714;28;20020;-69
2023/03/01 08:38:50;;;;;;;17.40;7.78;;;3.10;99.90;;;;;;5092902;28;20034;-69
2023/03/01 08:41:16;;;;;;;21.10;9.48;;;3.30;99.90;;;;;;5092608;28;20094;-69
2023/03/01 08:43:41;;;;;;;18.60;8.65;;;3.30;99.90;;;;;;5093009;28;20024;-69
2023/03/01 08:46:07;;;;;;;16.98;7.70;;;3.30;99.90;;;;;;5093840;28;20061;-69
2023/03/01 08:48:32;;;;;;;18.13;8.10;;;3.40;99.90;;;;;;5093742;28;20024;-69
2023/03/01 08:51:11;;;;;;;14.65;6.80;;;3.30;99.90;;;;;;5092721;28;20073;-70
2023/03/01 08:53:36;;;;;;;14.43;7.25;;;3.40;99.90;;;;;;5093343;28;20085;-70
2023/03/01 08:56:03;;;;;;;16.05;7.65;;;3.40;99.90;;;;;;5094116;28;20024;-69
2023/03/01 08:58:29;;;;;;;16.25;7.57;;;3.40;99.90;;;;;;5092645;28;20021;-69
2023/03/01 09:00:56;;;;;;;19.52;8.82;;;3.40;99.90;;;;;;5093465;28;20028;-69
2023/03/01 09:03:22;;;;;;;17.73;7.22;;;3.50;99.90;;;;;;5092506;28;20028;-69
2023/03/01 09:05:49;;;;;;;24.15;8.18;;;3.50;99.90;;;;;;5093700;28;20032;-69
2023/03/01 09:08:16;;;;;;;15.05;7.30;;;3.70;99.90;;;;;;5093623;28;20020;-69
2023/03/01 09:10:41;;;;;;;16.23;7.28;;;3.80;99.90;;;;;;5092179;28;20021;-69
2023/03/01 09:13:07;;;;;;;12.98;6.43;;;3.90;99.90;;;;;;5092310;28;20027;-70
2023/03/01 09:15:33;;;;;;;13.10;6.72;;;4.00;99.90;;;;;;5092213;28;20063;-71
2023/03/01 09:17:59;;;;;;;18.80;7.05;;;4.20;99.90;;;;;;5092119;28;20129;-70
2023/03/01 09:20:24;;;;;;;13.32;6.50;;;4.30;99.90;;;;;;5092115;28;20016;-70
2023/03/01 09:22:50;;;;;;;16.48;7.22;;;4.50;99.90;;;;;;5092144;28;20383;-70
2023/03/01 09:25:16;;;;;;;13.02;6.82;;;4.50;99.90;;;;;;5092047;28;20028;-70
2023/03/01 09:27:41;;;;;;;19.08;7.50;;;4.50;99.90;;;;;;5092304;28;20020;-70
2023/03/01 09:30:08;;;;;;;13.85;7.18;;;4.60;99.90;;;;;;5092210;28;20494;-70
2023/03/01 09:32:33;;;;;;;13.38;6.13;;;4.60;99.90;;;;;;5093371;28;20024;-70
2023/03/01 09:35:04;;;;;;;14.20;6.82;;;4.70;99.90;;;;;;5092247;28;20077;-70
2023/03/01 09:37:31;;;;;;;12.88;6.45;;;4.70;99.90;;;;;;5093427;28;20103;-70
2023/03/01 09:39:57;;;;;;;13.85;7.13;;;4.60;99.90;;;;;;5093103;28;20099;-70
2023/03/01 09:42:22;;;;;;;13.30;6.68;;;4.60;99.90;;;;;;5092143;28;20107;-70
2023/03/01 09:44:55;;;;;;;15.27;6.60;;;4.70;99.90;;;;;;5096189;28;20023;-70
2023/03/01 09:47:30;;;;;;;22.63;6.95;;;4.80;99.90;;;;;;5095762;28;20038;-71
2023/03/01 09:50:02;;;;;;;14.88;6.70;;;4.80;99.90;;;;;;5096669;28;20027;-71
2023/03/01 09:52:33;;;;;;;;;;;4.80;99.90;;;;;;5091171;28;20103;-71
2023/03/01 09:54:59;;;;;;;18.15;6.97;;;5.00;99.90;;;;;;5096837;28;19907;-71
2023/03/01 09:57:31;;;;;;;16.50;6.68;;;5.10;99.90;;;;;;5096444;28;20084;-71
2023/03/01 10:00:18;;;;;;;10.80;6.40;;;5.20;99.90;;;;;;5095710;28;20024;-71
2023/03/01 10:03:02;;;;;;;17.25;7.10;;;5.30;99.90;;;;;;5095733;28;20028;-71
2023/03/01 10:05:34;;;;;;;17.08;6.97;;;5.40;99.90;;;;;;5096837;28;20384;-71
2023/03/01 10:08:23;;;;;;;15.65;7.30;;;5.50;99.90;;;;;;5096466;28;20020;-71
2023/03/01 10:10:49;;;;;;;16.08;6.63;;;5.70;99.90;;;;;;5096269;28;20027;-71
2023/03/01 10:13:23;;;;;;;14.73;6.68;;;5.80;99.90;;;;;;5095640;28;20017;-71
2023/03/01 10:16:13;;;;;;;16.17;6.90;;;5.90;99.90;;;;;;5096171;28;20119;-71
2023/03/01 10:18:40;;;;;;;13.93;6.32;;;5.90;99.90;;;;;;5094996;28;20039;-71
2023/03/01 10:21:16;;;;;;;17.13;7.15;;;5.90;99.90;;;;;;5095442;28;20051;-71
2023/03/01 10:23:43;;;;;;;13.20;6.38;;;6.20;99.90;;;;;;5095456;28;20028;-71
2023/03/01 10:26:14;;;;;;;12.10;6.50;;;6.10;99.90;;;;;;5095368;28;20020;-71
2023/03/01 10:28:44;;;;;;;14.50;6.32;;;6.30;99.90;;;;;;5095164;28;20024;-70
2023/03/01 10:31:15;;;;;;;13.73;6.93;;;6.40;99.90;;;;;;5094970;28;20036;-71
2023/03/01 10:33:42;;;;;;;10.70;5.82;;;6.60;99.90;;;;;;5095015;28;20046;-71
2023/03/01 10:36:08;;;;;;;15.65;6.53;;;6.80;99.90;;;;;;5096621;28;20025;-71
2023/03/01 10:38:56;;;;;;;10.70;6.10;;;6.90;99.90;;;;;;5094795;28;20475;-70
2023/03/01 10:41:25;;;;;;;13.02;6.43;;;7.00;99.90;;;;;;5094803;28;20144;-70
2023/03/01 10:43:57;;;;;;;14.45;6.60;;;7.10;99.90;;;;;;5094753;28;20076;-71
2023/03/01 10:46:34;;;;;;;12.20;5.50;;;7.20;99.90;;;;;;5096327;28;20028;-71
2023/03/01 10:49:17;;;;;;;14.27;6.38;;;7.40;99.90;;;;;;5096116;28;20035;-71
2023/03/01 10:51:47;;;;;;;13.60;6.43;;;7.40;99.90;;;;;;5096165;28;20025;-71
2023/03/01 10:54:17;;;;;;;13.80;7.20;;;7.50;99.90;;;;;;5095228;28;20021;-72
2023/03/01 10:56:53;;;;;;;15.27;6.93;;;7.80;99.90;;;;;;5095388;28;20024;-71
2023/03/01 10:59:28;;;;;;;12.30;6.20;;;7.90;99.90;;;;;;5095830;28;20055;-71
2023/03/01 11:02:17;;;;;;;19.75;6.82;;;7.90;99.90;;;;;;5095796;28;20028;-71
2023/03/01 11:05:02;;;;;;;12.40;6.30;;;8.10;99.90;;;;;;5094206;28;20028;-72
2023/03/01 11:07:28;;;;;;;13.55;6.28;;;8.00;99.90;;;;;;5094465;28;20081;-72
2023/03/01 11:09:54;;;;;;;11.38;6.50;;;8.10;99.90;;;;;;5094496;28;20027;-71
2023/03/01 11:12:21;;;;;;;12.80;6.28;;;8.30;99.90;;;;;;5095610;28;20019;-70
2023/03/01 11:14:57;;;;;;;13.77;6.97;;;8.40;99.90;;;;;;5094733;28;20027;-70
2023/03/01 11:17:38;;;;;;;9.98;5.93;;;8.50;99.90;;;;;;5095344;28;20070;-71
2023/03/01 11:20:13;;;;;;;12.85;6.45;;;8.60;99.90;;;;;;5095369;28;20027;-70
2023/03/01 11:22:49;;;;;;;17.85;6.90;;;8.70;99.90;;;;;;5095135;28;20028;-71
2023/03/01 11:25:15;;;;;;;11.73;6.25;;;8.80;99.90;;;;;;5095790;28;20028;-70
2023/03/01 11:27:57;;;;;;;15.30;6.45;;;9.00;99.90;;;;;;5095674;28;20028;-70
2023/03/01 11:30:41;;;;;;;12.93;5.93;;;9.20;99.90;;;;;;5093933;28;20024;-70
2023/03/01 11:33:18;;;;;;;12.90;6.93;;;9.10;99.90;;;;;;5094327;28;20070;-70
2023/03/01 11:35:57;;;;;;;11.18;6.20;;;9.10;99.90;;;;;;5095239;28;20016;-70
2023/03/01 11:38:25;;;;;;;12.30;7.10;;;9.30;99.90;;;;;;5094829;28;20031;-70
2023/03/01 11:41:21;;;;;;;15.13;7.30;;;9.30;99.90;;;;;;5094904;28;20027;-70
2023/03/01 11:44:01;;;;;;;14.38;7.60;;;9.40;99.90;;;;;;5094785;28;20121;-70
2023/03/01 11:47:02;;;;;;;12.07;7.03;;;9.50;99.90;;;;;;5093460;28;20020;-70
2023/03/01 11:50:07;;;;;;;9.95;6.13;;;9.80;99.90;;;;;;5075868;28;20555;-71
2023/03/01 11:53:00;;;;;;;19.83;7.00;;;9.80;99.90;;;;;;5093445;28;20497;-70
2023/03/01 11:55:53;;;;;;;21.23;7.15;;;9.90;99.90;;;;;;5094287;28;20079;-70
2023/03/01 11:58:43;;;;;;;13.38;6.95;;;9.50;99.90;;;;;;5094815;28;20056;-70
2023/03/01 12:01:14;;;;;;;17.17;6.88;;;9.30;99.50;;;;;;5093297;28;20024;-70
2023/03/01 12:03:59;;;;;;;;;;;9.30;99.90;;;;;;5094004;28;20048;-70
2023/03/01 12:06:27;;;;;;;15.65;6.82;;;9.40;99.90;;;;;;5092338;28;19904;-70
2023/03/01 12:09:09;;;;;;;13.80;6.40;;;9.60;99.90;;;;;;5094154;28;20021;-70
2023/03/01 12:12:11;;;;;;;14.20;6.82;;;9.80;99.90;;;;;;5094976;28;20465;-71
2023/03/01 12:14:49;;;;;;;12.05;6.53;;;10.10;99.90;;;;;;5094221;28;20100;-70
2023/03/01 12:17:32;;;;;;;16.38;7.60;;;10.10;98.30;;;;;;5118038;22;20083;-66
2023/03/01 12:20:09;;;;;;;15.73;6.57;;;10.20;97.90;;;;;;5036229;28;20108;-66
2023/03/01 12:22:57;;;;;;;14.02;6.47;;;10.20;99.00;;;;;;5036086;28;20108;-66
2023/03/01 12:25:43;;;;;;;16.08;6.72;;;10.20;98.40;;;;;;5053437;28;20025;-66
2023/03/01 12:28:30;;;;;;;12.48;6.93;;;10.50;98.90;;;;;;5032779;28;20100;-66
2023/03/01 12:31:17;;;;;;;16.33;7.15;;;10.60;97.20;;;;;;5016367;28;20529;-65
2023/03/01 12:34:18;;;;;;;13.05;6.05;;;10.80;98.10;;;;;;5034024;28;20092;-65
2023/03/01 12:36:55;;;;;;;9.93;6.10;;;10.90;98.70;;;;;;5013010;28;20034;-65
2023/03/01 12:39:41;;;;;;;18.65;6.63;;;11.10;97.60;;;;;;5015858;28;20025;-67
2023/03/01 12:42:28;;;;;;;13.20;6.10;;;10.80;95.00;;;;;;5015890;28;20029;-67
2023/03/01 12:45:14;;;;;;;11.73;6.38;;;10.80;96.00;;;;;;5015926;28;20392;-66
2023/03/01 12:48:00;;;;;;;12.70;6.45;;;10.70;95.20;;;;;;4999400;28;20041;-65
2023/03/01 12:50:39;;;;;;;13.15;6.50;;;11.00;95.70;;;;;;5015877;28;20030;-65
2023/03/01 12:53:04;;;;;;;16.67;7.10;;;11.00;94.90;;;;;;5033576;28;20029;-65
2023/03/01 12:55:35;;;;;;;12.75;7.13;;;11.30;95.10;;;;;;5015792;28;20033;-65
2023/03/01 12:58:17;;;;;;;14.17;6.20;;;11.50;94.00;;;;;;5033349;28;20051;-65
2023/03/01 13:01:03;;;;;;;10.45;6.05;;;11.40;92.40;;;;;;5015675;28;20257;-65
2023/03/01 13:03:40;;;;;;;10.93;6.03;;;10.90;91.30;;;;;;5015700;28;20061;-65